sensor_id;sensor_type;location;lat;lon;timestamp;pressure;altitude;pressure_sealevel;temperature;humidity
51237;BME280;37312;47.550;18.818;2022-08-24T00:01:04;99067.78;;;17.49;100.00
51237;BME280;37312;47.550;18.818;2022-08-24T00:03:32;99070.78;;;17.47;100.00
51237;BME280;37312;47.550;18.818;2022-08-24T00:05:58;99070.22;;;17.50;100.00
51237;BME280;37312;47.550;18.818;2022-08-24T00:08:25;99078.41;;;17.45;100.00
51237;BME280;37312;47.550;18.818;2022-08-24T00:10:52;99071.34;;;17.44;100.00
51237;BME280;37312;47.550;18.818;2022-08-24T00:13:18;99072.97;;;17.45;100.00
51237;BME280;37312;47.550;18.818;2022-08-24T00:15:44;99077.31;;;17.46;100.00
51237;BME280;37312;47.550;18.818;2022-08-24T00:18:11;99075.12;;;17.43;100.00
51237;BME280;37312;47.550;18.818;2022-08-24T00:20:37;99078.94;;;17.47;100.00
51237;BME280;37312;47.550;18.818;2022-08-24T00:23:05;99081.97;;;17.46;100.00
51237;BME280;37312;47.550;18.818;2022-08-24T00:25:32;99080.03;;;17.46;100.00
51237;BME280;37312;47.550;18.818;2022-08-24T00:27:58;99065.41;;;17.32;100.00
51237;BME280;37312;47.550;18.818;2022-08-24T00:30:24;99064.03;;;17.29;100.00
51237;BME280;37312;47.550;18.818;2022-08-24T00:32:51;99065.97;;;17.29;100.00
51237;BME280;37312;47.550;18.818;2022-08-24T00:35:20;99073.59;;;17.32;100.00
51237;BME280;37312;47.550;18.818;2022-08-24T00:37:47;99077.13;;;17.33;100.00
51237;BME280;37312;47.550;18.818;2022-08-24T00:40:19;99078.47;;;17.35;100.00
51237;BME280;37312;47.550;18.818;2022-08-24T00:42:45;99077.34;;;17.36;100.00
51237;BME280;37312;47.550;18.818;2022-08-24T00:45:13;99070.31;;;17.30;100.00
51237;BME280;37312;47.550;18.818;2022-08-24T00:47:58;99074.66;;;17.31;100.00
51237;BME280;37312;47.550;18.818;2022-08-24T00:50:50;99075.19;;;17.33;100.00
51237;BME280;37312;47.550;18.818;2022-08-24T00:53:36;99071.91;;;17.36;100.00
51237;BME280;37312;47.550;18.818;2022-08-24T00:56:09;99070.87;;;17.32;100.00
51237;BME280;37312;47.550;18.818;2022-08-24T00:59:00;99067.84;;;17.34;100.00
51237;BME280;37312;47.550;18.818;2022-08-24T01:01:28;99064.84;;;17.35;100.00
51237;BME280;37312;47.550;18.818;2022-08-24T01:03:56;99063.78;;;17.31;100.00
51237;BME280;37312;47.550;18.818;2022-08-24T01:06:23;99064.31;;;17.33;100.00
51237;BME280;37312;47.550;18.818;2022-08-24T01:08:49;99055.59;;;17.36;100.00
51237;BME280;37312;47.550;18.818;2022-08-24T01:11:20;99056.69;;;17.35;100.00
51237;BME280;37312;47.550;18.818;2022-08-24T01:13:49;99059.41;;;17.35;100.00
51237;BME280;37312;47.550;18.818;2022-08-24T01:16:18;99051.81;;;17.32;100.00
51237;BME280;37312;47.550;18.818;2022-08-24T01:19:13;99051.81;;;17.32;100.00
51237;BME280;37312;47.550;18.818;2022-08-24T01:21:53;99047.97;;;17.33;100.00
51237;BME280;37312;47.550;18.818;2022-08-24T01:24:23;99048.78;;;17.34;100.00
51237;BME280;37312;47.550;18.818;2022-08-24T01:26:49;99049.63;;;17.29;100.00
51237;BME280;37312;47.550;18.818;2022-08-24T01:29:18;99056.72;;;17.30;100.00
51237;BME280;37312;47.550;18.818;2022-08-24T01:31:45;99048.28;;;17.26;100.00
51237;BME280;37312;47.550;18.818;2022-08-24T01:34:11;99056.72;;;17.30;100.00
51237;BME280;37312;47.550;18.818;2022-08-24T01:36:50;99055.34;;;17.27;100.00
51237;BME280;37312;47.550;18.818;2022-08-24T01:39:41;99061.63;;;17.28;100.00
51237;BME280;37312;47.550;18.818;2022-08-24T01:42:08;99058.66;;;17.19;100.00
51237;BME280;37312;47.550;18.818;2022-08-24T01:44:36;99058.94;;;17.18;100.00
51237;BME280;37312;47.550;18.818;2022-08-24T01:47:05;99055.66;;;17.16;100.00
51237;BME280;37312;47.550;18.818;2022-08-24T01:49:35;99061.66;;;17.18;100.00
51237;BME280;37312;47.550;18.818;2022-08-24T01:52:02;99079.09;;;17.17;100.00
51237;BME280;37312;47.550;18.818;2022-08-24T01:54:31;99076.59;;;17.20;100.00
51237;BME280;37312;47.550;18.818;2022-08-24T01:56:58;99071.16;;;17.20;100.00
51237;BME280;37312;47.550;18.818;2022-08-24T01:59:24;99074.97;;;17.24;100.00
51237;BME280;37312;47.550;18.818;2022-08-24T02:01:57;99077.16;;;17.17;100.00
51237;BME280;37312;47.550;18.818;2022-08-24T02:04:25;99085.59;;;17.21;100.00
51237;BME280;37312;47.550;18.818;2022-08-24T02:06:51;99076.59;;;17.25;100.00
51237;BME280;37312;47.550;18.818;2022-08-24T02:09:18;99082.88;;;17.21;100.00
51237;BME280;37312;47.550;18.818;2022-08-24T02:11:44;99083.69;;;17.16;100.00
51237;BME280;37312;47.550;18.818;2022-08-24T02:14:11;99090.25;;;17.15;100.00
51237;BME280;37312;47.550;18.818;2022-08-24T02:16:38;99079.63;;;17.19;100.00
51237;BME280;37312;47.550;18.818;2022-08-24T02:19:04;99085.59;;;17.16;100.00
51237;BME280;37312;47.550;18.818;2022-08-24T02:21:31;99085.06;;;17.14;100.00
51237;BME280;37312;47.550;18.818;2022-08-24T02:23:57;99081.25;;;17.15;100.00
51237;BME280;37312;47.550;18.818;2022-08-24T02:26:23;99086.72;;;17.15;100.00
51237;BME280;37312;47.550;18.818;2022-08-24T02:28:49;99086.44;;;17.11;100.00
51237;BME280;37312;47.550;18.818;2022-08-24T02:31:14;99085.66;;;17.05;100.00
51237;BME280;37312;47.550;18.818;2022-08-24T02:33:40;99081.81;;;17.06;100.00
51237;BME280;37312;47.550;18.818;2022-08-24T02:36:08;99085.13;;;17.03;100.00
51237;BME280;37312;47.550;18.818;2022-08-24T02:38:34;99084.84;;;17.05;100.00
51237;BME280;37312;47.550;18.818;2022-08-24T02:41:00;99092.47;;;17.03;100.00
51237;BME280;37312;47.550;18.818;2022-08-24T02:43:26;99103.88;;;17.05;100.00
51237;BME280;37312;47.550;18.818;2022-08-24T02:45:52;99096.53;;;17.05;100.00
51237;BME280;37312;47.550;18.818;2022-08-24T02:48:19;99105.25;;;17.07;100.00
51237;BME280;37312;47.550;18.818;2022-08-24T02:50:47;99096.78;;;17.14;100.00
51237;BME280;37312;47.550;18.818;2022-08-24T02:53:16;99109.00;;;17.12;100.00
51237;BME280;37312;47.550;18.818;2022-08-24T02:55:42;99102.50;;;17.13;100.00
51237;BME280;37312;47.550;18.818;2022-08-24T02:58:11;99098.69;;;17.19;100.00
51237;BME280;37312;47.550;18.818;2022-08-24T03:00:39;99097.28;;;17.16;100.00
51237;BME280;37312;47.550;18.818;2022-08-24T03:05:32;99099.22;;;17.11;100.00
51237;BME280;37312;47.550;18.818;2022-08-24T03:07:58;99087.28;;;17.06;100.00
51237;BME280;37312;47.550;18.818;2022-08-24T03:10:24;99087.28;;;17.01;100.00
51237;BME280;37312;47.550;18.818;2022-08-24T03:12:50;99092.47;;;17.03;100.00
51237;BME280;37312;47.550;18.818;2022-08-24T03:15:18;99092.16;;;17.04;100.00
51237;BME280;37312;47.550;18.818;2022-08-24T03:17:46;99082.41;;;16.98;100.00
51237;BME280;37312;47.550;18.818;2022-08-24T03:20:13;99087.03;;;17.03;100.00
51237;BME280;37312;47.550;18.818;2022-08-24T03:22:40;99080.75;;;16.97;100.00
51237;BME280;37312;47.550;18.818;2022-08-24T03:25:07;99076.69;;;16.95;100.00
51237;BME280;37312;47.550;18.818;2022-08-24T03:27:33;99082.69;;;16.97;100.00
51237;BME280;37312;47.550;18.818;2022-08-24T03:29:59;99079.16;;;16.96;100.00
51237;BME280;37312;47.550;18.818;2022-08-24T03:32:26;99080.25;;;16.90;100.00
51237;BME280;37312;47.550;18.818;2022-08-24T03:34:52;99077.53;;;16.90;100.00
51237;BME280;37312;47.550;18.818;2022-08-24T03:37:19;99082.41;;;16.93;100.00
51237;BME280;37312;47.550;18.818;2022-08-24T03:39:45;99075.88;;;16.94;100.00
51237;BME280;37312;47.550;18.818;2022-08-24T03:42:13;99081.34;;;16.94;100.00
51237;BME280;37312;47.550;18.818;2022-08-24T03:44:39;99086.22;;;16.92;100.00
51237;BME280;37312;47.550;18.818;2022-08-24T03:47:06;99075.59;;;16.96;100.00
51237;BME280;37312;47.550;18.818;2022-08-24T03:49:35;99072.06;;;16.95;100.00
51237;BME280;37312;47.550;18.818;2022-08-24T03:52:01;99071.25;;;16.95;100.00
51237;BME280;37312;47.550;18.818;2022-08-24T03:54:27;99071.00;;;16.96;100.00
51237;BME280;37312;47.550;18.818;2022-08-24T03:56:53;99072.59;;;16.97;100.00
51237;BME280;37312;47.550;18.818;2022-08-24T03:59:19;99071.53;;;16.98;100.00
51237;BME280;37312;47.550;18.818;2022-08-24T04:01:44;99068.81;;;16.98;100.00
51237;BME280;37312;47.550;18.818;2022-08-24T04:04:10;99072.34;;;16.99;100.00
51237;BME280;37312;47.550;18.818;2022-08-24T04:06:37;99075.88;;;16.99;100.00
51237;BME280;37312;47.550;18.818;2022-08-24T04:09:04;99080.75;;;16.97;100.00
51237;BME280;37312;47.550;18.818;2022-08-24T04:11:30;99068.81;;;16.93;100.00
51237;BME280;37312;47.550;18.818;2022-08-24T04:13:58;99075.88;;;16.99;100.00
51237;BME280;37312;47.550;18.818;2022-08-24T04:16:24;99076.13;;;16.98;100.00
51237;BME280;37312;47.550;18.818;2022-08-24T04:18:51;99075.59;;;17.01;100.00
51237;BME280;37312;47.550;18.818;2022-08-24T04:21:26;99075.84;;;17.04;100.00
51237;BME280;37312;47.550;18.818;2022-08-24T04:23:52;99081.28;;;17.04;100.00
51237;BME280;37312;47.550;18.818;2022-08-24T04:26:22;99078.56;;;17.04;100.00
51237;BME280;37312;47.550;18.818;2022-08-24T04:28:49;99085.34;;;17.07;100.00
51237;BME280;37312;47.550;18.818;2022-08-24T04:31:15;99080.75;;;17.07;100.00
51237;BME280;37312;47.550;18.818;2022-08-24T04:33:46;99078.28;;;17.11;100.00
51237;BME280;37312;47.550;18.818;2022-08-24T04:36:16;99079.91;;;17.12;100.00
51237;BME280;37312;47.550;18.818;2022-08-24T04:38:42;99072.56;;;17.13;100.00
51237;BME280;37312;47.550;18.818;2022-08-24T04:41:10;99076.09;;;17.13;100.00
51237;BME280;37312;47.550;18.818;2022-08-24T04:43:37;99079.63;;;17.19;100.00
51237;BME280;37312;47.550;18.818;2022-08-24T04:46:05;99073.06;;;17.20;100.00
51237;BME280;37312;47.550;18.818;2022-08-24T04:48:32;99074.97;;;17.24;100.00
51237;BME280;37312;47.550;18.818;2022-08-24T04:51:04;99068.16;;;17.27;100.00
51237;BME280;37312;47.550;18.818;2022-08-24T04:53:31;99071.09;;;17.36;100.00
51237;BME280;37312;47.550;18.818;2022-08-24T04:55:57;99079.25;;;17.41;100.00
51237;BME280;37312;47.550;18.818;2022-08-24T04:58:24;99075.72;;;17.40;100.00
51237;BME280;37312;47.550;18.818;2022-08-24T05:00:50;99086.56;;;17.45;100.00
51237;BME280;37312;47.550;18.818;2022-08-24T05:03:16;99094.16;;;17.54;100.00
51237;BME280;37312;47.550;18.818;2022-08-24T05:05:46;99097.16;;;17.57;100.00
51237;BME280;37312;47.550;18.818;2022-08-24T05:08:14;99090.12;;;17.46;100.00
51237;BME280;37312;47.550;18.818;2022-08-24T05:10:44;99092.25;;;17.54;100.00
51237;BME280;37312;47.550;18.818;2022-08-24T05:13:11;99094.13;;;17.59;100.00
51237;BME280;37312;47.550;18.818;2022-08-24T05:15:45;99091.69;;;17.62;100.00
51237;BME280;37312;47.550;18.818;2022-08-24T05:18:13;99092.72;;;17.71;100.00
51237;BME280;37312;47.550;18.818;2022-08-24T05:20:41;99092.97;;;17.75;100.00
51237;BME280;37312;47.550;18.818;2022-08-24T05:23:07;99089.13;;;17.86;100.00
51237;BME280;37312;47.550;18.818;2022-08-24T05:25:33;99083.66;;;17.91;100.00
51237;BME280;37312;47.550;18.818;2022-08-24T05:27:59;99095.03;;;17.99;100.00
51237;BME280;37312;47.550;18.818;2022-08-24T05:30:25;99087.41;;;18.01;100.00
51237;BME280;37312;47.550;18.818;2022-08-24T05:32:51;99089.81;;;18.07;100.00
51237;BME280;37312;47.550;18.818;2022-08-24T05:35:17;99098.78;;;18.08;100.00
51237;BME280;37312;47.550;18.818;2022-08-24T05:37:44;99091.50;;;17.98;100.00
51237;BME280;37312;47.550;18.818;2022-08-24T05:40:12;99087.88;;;18.08;100.00
51237;BME280;37312;47.550;18.818;2022-08-24T05:42:39;99094.03;;;18.24;100.00
51237;BME280;37312;47.550;18.818;2022-08-24T05:45:05;99095.00;;;18.38;100.00
51237;BME280;37312;47.550;18.818;2022-08-24T05:47:32;99092.28;;;18.38;100.00
51237;BME280;37312;47.550;18.818;2022-08-24T05:50:00;99085.41;;;18.46;100.00
51237;BME280;37312;47.550;18.818;2022-08-24T05:52:26;99093.75;;;18.60;100.00
51237;BME280;37312;47.550;18.818;2022-08-24T05:54:57;99089.50;;;18.78;100.00
51237;BME280;37312;47.550;18.818;2022-08-24T05:57:25;99086.50;;;18.79;100.00
51237;BME280;37312;47.550;18.818;2022-08-24T05:59:51;99092.38;;;18.91;100.00
51237;BME280;37312;47.550;18.818;2022-08-24T06:02:18;99090.16;;;18.93;100.00
51237;BME280;37312;47.550;18.818;2022-08-24T06:04:44;99093.87;;;19.03;100.00
51237;BME280;37312;47.550;18.818;2022-08-24T06:07:11;99090.47;;;19.16;100.00
51237;BME280;37312;47.550;18.818;2022-08-24T06:09:39;99094.13;;;19.30;100.00
51237;BME280;37312;47.550;18.818;2022-08-24T06:12:06;99082.62;;;19.33;100.00
51237;BME280;37312;47.550;18.818;2022-08-24T06:14:33;99084.66;;;19.66;100.00
51237;BME280;37312;47.550;18.818;2022-08-24T06:17:06;99090.16;;;19.85;100.00
51237;BME280;37312;47.550;18.818;2022-08-24T06:19:33;99093.13;;;19.88;100.00
51237;BME280;37312;47.550;18.818;2022-08-24T06:21:59;99096.16;;;19.87;100.00
51237;BME280;37312;47.550;18.818;2022-08-24T06:24:26;99098.50;;;19.93;100.00
51237;BME280;37312;47.550;18.818;2022-08-24T06:27:14;99090.06;;;19.90;100.00
51237;BME280;37312;47.550;18.818;2022-08-24T06:29:55;99095.50;;;19.95;100.00
51237;BME280;37312;47.550;18.818;2022-08-24T06:32:22;99106.50;;;20.09;100.00
51237;BME280;37312;47.550;18.818;2022-08-24T06:34:49;99113.56;;;20.10;100.00
51237;BME280;37312;47.550;18.818;2022-08-24T06:37:15;99111.03;;;20.32;100.00
51237;BME280;37312;47.550;18.818;2022-08-24T06:39:41;99110.53;;;20.30;100.00
51237;BME280;37312;47.550;18.818;2022-08-24T06:42:07;99109.53;;;20.59;100.00
51237;BME280;37312;47.550;18.818;2022-08-24T06:44:33;99115.06;;;20.87;100.00
51237;BME280;37312;47.550;18.818;2022-08-24T06:46:59;99121.31;;;21.34;100.00
51237;BME280;37312;47.550;18.818;2022-08-24T06:49:25;99111.91;;;21.54;100.00
51237;BME280;37312;47.550;18.818;2022-08-24T06:51:51;99122.13;;;21.76;100.00
51237;BME280;37312;47.550;18.818;2022-08-24T06:54:17;99120.94;;;22.04;100.00
51237;BME280;37312;47.550;18.818;2022-08-24T06:56:45;99124.81;;;22.03;100.00
51237;BME280;37312;47.550;18.818;2022-08-24T06:59:11;99120.88;;;22.32;100.00
51237;BME280;37312;47.550;18.818;2022-08-24T07:01:37;99124.44;;;22.55;100.00
51237;BME280;37312;47.550;18.818;2022-08-24T07:04:03;99134.66;;;23.17;100.00
51237;BME280;37312;47.550;18.818;2022-08-24T07:06:29;99128.59;;;23.86;100.00
51237;BME280;37312;47.550;18.818;2022-08-24T07:08:55;99137.50;;;24.01;100.00
51237;BME280;37312;47.550;18.818;2022-08-24T07:11:22;99143.62;;;23.40;100.00
51237;BME280;37312;47.550;18.818;2022-08-24T07:13:49;99139.13;;;23.44;100.00
51237;BME280;37312;47.550;18.818;2022-08-24T07:16:17;99145.91;;;23.47;100.00
51237;BME280;37312;47.550;18.818;2022-08-24T07:18:43;99142.84;;;23.00;100.00
51237;BME280;37312;47.550;18.818;2022-08-24T07:21:10;99151.19;;;23.26;100.00
51237;BME280;37312;47.550;18.818;2022-08-24T07:23:36;99145.34;;;23.19;100.00
51237;BME280;37312;47.550;18.818;2022-08-24T07:26:10;99145.63;;;23.17;100.00
51237;BME280;37312;47.550;18.818;2022-08-24T07:28:38;99151.31;;;23.69;100.00
51237;BME280;37312;47.550;18.818;2022-08-24T07:31:05;99157.75;;;24.74;100.00
51237;BME280;37312;47.550;18.818;2022-08-24T07:33:31;99158.78;;;25.94;95.78
51237;BME280;37312;47.550;18.818;2022-08-24T07:35:58;99162.91;;;26.84;92.54
51237;BME280;37312;47.550;18.818;2022-08-24T07:38:24;99171.97;;;27.63;83.66
51237;BME280;37312;47.550;18.818;2022-08-24T07:40:51;99169.50;;;27.50;85.04
51237;BME280;37312;47.550;18.818;2022-08-24T07:43:18;99173.13;;;27.87;84.13
51237;BME280;37312;47.550;18.818;2022-08-24T07:45:47;99185.66;;;28.62;79.14
51237;BME280;37312;47.550;18.818;2022-08-24T07:48:14;99184.47;;;28.91;75.21
51237;BME280;37312;47.550;18.818;2022-08-24T07:50:40;99183.94;;;29.45;73.33
51237;BME280;37312;47.550;18.818;2022-08-24T07:53:06;99180.03;;;29.02;73.66
51237;BME280;37312;47.550;18.818;2022-08-24T07:55:32;99179.97;;;29.62;73.47
51237;BME280;37312;47.550;18.818;2022-08-24T07:57:59;99179.56;;;30.11;72.29
51237;BME280;37312;47.550;18.818;2022-08-24T08:00:25;99181.91;;;29.74;70.92
51237;BME280;37312;47.550;18.818;2022-08-24T08:02:51;99182.75;;;30.29;69.31
51237;BME280;37312;47.550;18.818;2022-08-24T08:05:20;99181.44;;;29.88;70.04
51237;BME280;37312;47.550;18.818;2022-08-24T08:07:47;99171.81;;;30.01;69.91
51237;BME280;37312;47.550;18.818;2022-08-24T08:10:13;99177.16;;;29.75;71.55
51237;BME280;37312;47.550;18.818;2022-08-24T08:12:40;99186.53;;;30.37;68.25
51237;BME280;37312;47.550;18.818;2022-08-24T08:15:07;99178.00;;;29.95;69.61
51237;BME280;37312;47.550;18.818;2022-08-24T08:17:37;99172.66;;;28.50;76.20
51237;BME280;37312;47.550;18.818;2022-08-24T08:20:06;99181.75;;;27.98;80.23
51237;BME280;37312;47.550;18.818;2022-08-24T08:22:32;99178.94;;;28.22;80.77
51237;BME280;37312;47.550;18.818;2022-08-24T08:25:17;99180.75;;;28.43;79.03
51237;BME280;37312;47.550;18.818;2022-08-24T08:27:44;99186.91;;;28.93;74.62
51237;BME280;37312;47.550;18.818;2022-08-24T08:30:10;99168.28;;;29.69;73.18
51237;BME280;37312;47.550;18.818;2022-08-24T08:32:36;99175.09;;;29.40;71.88
51237;BME280;37312;47.550;18.818;2022-08-24T08:35:03;99168.03;;;28.98;76.33
51237;BME280;37312;47.550;18.818;2022-08-24T08:37:29;99181.00;;;28.94;75.10
51237;BME280;37312;47.550;18.818;2022-08-24T08:39:56;99180.16;;;28.50;78.88
51237;BME280;37312;47.550;18.818;2022-08-24T08:42:32;99187.06;;;27.66;81.94
51237;BME280;37312;47.550;18.818;2022-08-24T08:45:19;99177.06;;;27.16;87.28
51237;BME280;37312;47.550;18.818;2022-08-24T09:00:12;99180.56;;;26.37;94.10
51237;BME280;37312;47.550;18.818;2022-08-24T09:05:33;99179.22;;;27.93;83.74
51237;BME280;37312;47.550;18.818;2022-08-24T09:13:42;99197.97;;;30.00;74.98
51237;BME280;37312;47.550;18.818;2022-08-24T09:30:21;99189.69;;;34.03;58.56
51237;BME280;37312;47.550;18.818;2022-08-24T09:33:07;99190.53;;;35.02;55.03
51237;BME280;37312;47.550;18.818;2022-08-24T09:49:45;99174.62;;;28.78;76.92
51237;BME280;37312;47.550;18.818;2022-08-24T10:10:15;99165.19;;;28.95;79.70
51237;BME280;37312;47.550;18.818;2022-08-24T10:24:06;99152.81;;;28.92;79.16
51237;BME280;37312;47.550;18.818;2022-08-24T10:32:44;99160.53;;;27.65;83.51
51237;BME280;37312;47.550;18.818;2022-08-24T10:35:21;99158.00;;;27.35;86.43
51237;BME280;37312;47.550;18.818;2022-08-24T10:38:31;99162.81;;;27.38;86.58
51237;BME280;37312;47.550;18.818;2022-08-24T10:41:42;99166.41;;;27.76;82.86
51237;BME280;37312;47.550;18.818;2022-08-24T10:46:57;99155.94;;;27.57;88.35
51237;BME280;37312;47.550;18.818;2022-08-24T10:55:21;99165.41;;;27.10;90.15
51237;BME280;37312;47.550;18.818;2022-08-24T11:00:26;99161.97;;;26.26;95.64
51237;BME280;37312;47.550;18.818;2022-08-24T11:03:17;99174.03;;;25.91;98.42
51237;BME280;37312;47.550;18.818;2022-08-24T11:05:52;99175.41;;;25.76;99.45
51237;BME280;37312;47.550;18.818;2022-08-24T11:08:27;99163.37;;;25.51;100.00
51237;BME280;37312;47.550;18.818;2022-08-24T11:11:12;99171.97;;;25.50;100.00
51237;BME280;37312;47.550;18.818;2022-08-24T11:14:22;99174.34;;;25.13;100.00
51237;BME280;37312;47.550;18.818;2022-08-24T11:16:40;99164.94;;;25.14;100.00
51237;BME280;37312;47.550;18.818;2022-08-24T11:19:10;99159.12;;;25.07;100.00
51237;BME280;37312;47.550;18.818;2022-08-24T11:21:52;99171.34;;;24.88;100.00
51237;BME280;37312;47.550;18.818;2022-08-24T11:24:24;99169.25;;;24.85;100.00
51237;BME280;37312;47.550;18.818;2022-08-24T11:26:58;99181.25;;;24.72;100.00
51237;BME280;37312;47.550;18.818;2022-08-24T11:30:21;99190.66;;;24.53;100.00
51237;BME280;37312;47.550;18.818;2022-08-24T11:32:42;99197.47;;;24.47;100.00
51237;BME280;37312;47.550;18.818;2022-08-24T11:35:16;99195.91;;;23.98;100.00
51237;BME280;37312;47.550;18.818;2022-08-24T11:37:43;99198.03;;;23.52;100.00
51237;BME280;37312;47.550;18.818;2022-08-24T11:40:10;99199.34;;;23.23;100.00
51237;BME280;37312;47.550;18.818;2022-08-24T11:56:45;99193.63;;;22.66;100.00
51237;BME280;37312;47.550;18.818;2022-08-24T11:59:36;99191.31;;;22.59;100.00
51237;BME280;37312;47.550;18.818;2022-08-24T12:02:08;99192.69;;;22.48;100.00
51237;BME280;37312;47.550;18.818;2022-08-24T12:04:48;99189.22;;;22.42;100.00
51237;BME280;37312;47.550;18.818;2022-08-24T12:07:41;99181.19;;;22.46;100.00
51237;BME280;37312;47.550;18.818;2022-08-24T12:18:59;99199.81;;;22.35;100.00
51237;BME280;37312;47.550;18.818;2022-08-24T12:21:29;99202.44;;;22.40;100.00
51237;BME280;37312;47.550;18.818;2022-08-24T12:24:07;99205.56;;;22.47;100.00
51237;BME280;37312;47.550;18.818;2022-08-24T12:26:39;99205.69;;;22.42;100.00
51237;BME280;37312;47.550;18.818;2022-08-24T12:31:57;99203.38;;;22.36;100.00
51237;BME280;37312;47.550;18.818;2022-08-24T12:37:21;99201.72;;;22.48;100.00
51237;BME280;37312;47.550;18.818;2022-08-24T12:39:58;99201.09;;;22.52;100.00
51237;BME280;37312;47.550;18.818;2022-08-24T12:42:48;99205.22;;;22.63;100.00
51237;BME280;37312;47.550;18.818;2022-08-24T12:45:16;99193.13;;;22.86;100.00
51237;BME280;37312;47.550;18.818;2022-08-24T12:58:44;99196.31;;;23.73;100.00
51237;BME280;37312;47.550;18.818;2022-08-24T13:01:15;99184.22;;;23.83;100.00
51237;BME280;37312;47.550;18.818;2022-08-24T13:03:45;99178.09;;;23.86;100.00
51237;BME280;37312;47.550;18.818;2022-08-24T13:06:25;99173.44;;;24.04;100.00
51237;BME280;37312;47.550;18.818;2022-08-24T13:09:46;99162.75;;;24.03;100.00
51237;BME280;37312;47.550;18.818;2022-08-24T13:11:52;99150.97;;;24.20;100.00
51237;BME280;37312;47.550;18.818;2022-08-24T13:14:25;99148.37;;;24.58;100.00
51237;BME280;37312;47.550;18.818;2022-08-24T13:21:58;99155.00;;;24.83;100.00
51237;BME280;37312;47.550;18.818;2022-08-24T13:29:43;99162.78;;;24.55;100.00
51237;BME280;37312;47.550;18.818;2022-08-24T13:32:16;99169.41;;;24.37;100.00
51237;BME280;37312;47.550;18.818;2022-08-24T13:34:46;99175.72;;;24.20;100.00
51237;BME280;37312;47.550;18.818;2022-08-24T13:39:52;99167.75;;;23.92;100.00
51237;BME280;37312;47.550;18.818;2022-08-24T13:47:47;99179.88;;;23.82;100.00
51237;BME280;37312;47.550;18.818;2022-08-24T14:00:50;99175.25;;;24.18;100.00
51237;BME280;37312;47.550;18.818;2022-08-24T14:11:47;99169.06;;;24.12;100.00
51237;BME280;37312;47.550;18.818;2022-08-24T14:23:44;99164.88;;;24.32;100.00
51237;BME280;37312;47.550;18.818;2022-08-24T14:32:24;99170.37;;;24.32;100.00
51237;BME280;37312;47.550;18.818;2022-08-24T14:40:32;99173.66;;;24.51;100.00
51237;BME280;37312;47.550;18.818;2022-08-24T14:43:20;99166.34;;;24.55;100.00
51237;BME280;37312;47.550;18.818;2022-08-24T14:46:00;99180.59;;;24.58;100.00
51237;BME280;37312;47.550;18.818;2022-08-24T14:48:39;99175.91;;;24.41;100.00
51237;BME280;37312;47.550;18.818;2022-08-24T14:56:52;99179.44;;;24.32;100.00
51237;BME280;37312;47.550;18.818;2022-08-24T15:00:21;99179.28;;;24.20;100.00
51237;BME280;37312;47.550;18.818;2022-08-24T15:07:53;99188.19;;;24.08;100.00
51237;BME280;37312;47.550;18.818;2022-08-24T15:10:21;99168.44;;;24.15;100.00
51237;BME280;37312;47.550;18.818;2022-08-24T15:12:58;99180.75;;;24.18;100.00
51237;BME280;37312;47.550;18.818;2022-08-24T15:20:45;99185.09;;;24.19;100.00
51237;BME280;37312;47.550;18.818;2022-08-24T15:23:27;99183.00;;;24.16;100.00
51237;BME280;37312;47.550;18.818;2022-08-24T15:26:15;99181.53;;;24.09;100.00
51237;BME280;37312;47.550;18.818;2022-08-24T15:28:48;99183.13;;;24.10;100.00
51237;BME280;37312;47.550;18.818;2022-08-24T15:31:19;99175.38;;;24.12;100.00
51237;BME280;37312;47.550;18.818;2022-08-24T15:34:00;99177.81;;;24.14;100.00
51237;BME280;37312;47.550;18.818;2022-08-24T15:36:27;99175.88;;;24.14;100.00
51237;BME280;37312;47.550;18.818;2022-08-24T15:38:55;99179.94;;;24.08;100.00
51237;BME280;37312;47.550;18.818;2022-08-24T15:41:36;99177.47;;;23.98;100.00
51237;BME280;37312;47.550;18.818;2022-08-24T15:44:10;99166.44;;;23.89;100.00
51237;BME280;37312;47.550;18.818;2022-08-24T15:46:45;99166.28;;;23.86;100.00
51237;BME280;37312;47.550;18.818;2022-08-24T15:49:20;99159.66;;;23.87;100.00
51237;BME280;37312;47.550;18.818;2022-08-24T15:52:07;99169.19;;;23.89;100.00
51237;BME280;37312;47.550;18.818;2022-08-24T15:54:40;99163.19;;;23.87;100.00
51237;BME280;37312;47.550;18.818;2022-08-24T16:18:11;99152.94;;;23.62;100.00
51237;BME280;37312;47.550;18.818;2022-08-24T16:20:37;99156.78;;;23.52;100.00
51237;BME280;37312;47.550;18.818;2022-08-24T16:23:10;99161.00;;;23.58;100.00
51237;BME280;37312;47.550;18.818;2022-08-24T16:25:41;99154.03;;;23.52;100.00
51237;BME280;37312;47.550;18.818;2022-08-24T16:28:09;99156.91;;;23.38;100.00
51237;BME280;37312;47.550;18.818;2022-08-24T16:30:51;99156.22;;;23.33;100.00
51237;BME280;37312;47.550;18.818;2022-08-24T16:33:38;99155.56;;;23.27;100.00
51237;BME280;37312;47.550;18.818;2022-08-24T16:36:07;99159.62;;;23.29;100.00
51237;BME280;37312;47.550;18.818;2022-08-24T16:38:35;99154.06;;;23.21;100.00
51237;BME280;37312;47.550;18.818;2022-08-24T16:41:05;99152.78;;;23.18;100.00
51237;BME280;37312;47.550;18.818;2022-08-24T16:43:36;99155.47;;;23.09;100.00
51237;BME280;37312;47.550;18.818;2022-08-24T16:46:05;99154.66;;;23.09;100.00
51237;BME280;37312;47.550;18.818;2022-08-24T16:48:31;99163.84;;;23.04;100.00
51237;BME280;37312;47.550;18.818;2022-08-24T16:50:57;99163.66;;;23.01;100.00